sensor_id;sensor_type;location;lat;lon;timestamp;P1;durP1;ratioP1;P2;durP2;ratioP2
32946;SDS011;54465;51.230;22.504;2023-02-26T00:04:54;8.52;;;5.47;;
32946;SDS011;54465;51.230;22.504;2023-02-26T00:09:54;7.78;;;4.88;;
32946;SDS011;54465;51.230;22.504;2023-02-26T00:14:55;7.90;;;5.95;;
32946;SDS011;54465;51.230;22.504;2023-02-26T00:19:56;8.90;;;5.88;;
32946;SDS011;54465;51.230;22.504;2023-02-26T00:24:57;8.45;;;5.50;;
32946;SDS011;54465;51.230;22.504;2023-02-26T00:29:57;7.00;;;5.47;;
32946;SDS011;54465;51.230;22.504;2023-02-26T00:34:58;4.60;;;3.90;;
32946;SDS011;54465;51.230;22.504;2023-02-26T00:45:01;6.53;;;5.28;;
32946;SDS011;54465;51.230;22.504;2023-02-26T00:55:19;6.57;;;4.90;;
32946;SDS011;54465;51.230;22.504;2023-02-26T01:00:20;5.18;;;4.50;;
32946;SDS011;54465;51.230;22.504;2023-02-26T01:05:21;7.40;;;5.65;;
32946;SDS011;54465;51.230;22.504;2023-02-26T01:10:22;6.22;;;5.50;;
32946;SDS011;54465;51.230;22.504;2023-02-26T01:15:23;6.38;;;5.70;;
32946;SDS011;54465;51.230;22.504;2023-02-26T01:20:26;7.45;;;5.32;;
32946;SDS011;54465;51.230;22.504;2023-02-26T01:25:48;6.10;;;5.13;;
32946;SDS011;54465;51.230;22.504;2023-02-26T01:30:51;5.65;;;4.97;;
32946;SDS011;54465;51.230;22.504;2023-02-26T01:46:25;5.70;;;4.65;;
32946;SDS011;54465;51.230;22.504;2023-02-26T01:56:44;7.05;;;5.22;;
32946;SDS011;54465;51.230;22.504;2023-02-26T02:01:47;5.13;;;4.45;;
32946;SDS011;54465;51.230;22.504;2023-02-26T02:06:48;4.57;;;4.07;;
32946;SDS011;54465;51.230;22.504;2023-02-26T02:17:33;5.75;;;4.30;;
32946;SDS011;54465;51.230;22.504;2023-02-26T02:38:50;5.07;;;4.00;;
32946;SDS011;54465;51.230;22.504;2023-02-26T02:43:56;5.27;;;4.57;;
32946;SDS011;54465;51.230;22.504;2023-02-26T02:49:01;4.72;;;3.72;;
32946;SDS011;54465;51.230;22.504;2023-02-26T02:59:10;4.88;;;4.35;;
32946;SDS011;54465;51.230;22.504;2023-02-26T03:04:21;6.55;;;4.85;;
32946;SDS011;54465;51.230;22.504;2023-02-26T03:09:22;5.05;;;4.13;;
32946;SDS011;54465;51.230;22.504;2023-02-26T03:14:22;7.13;;;5.25;;
32946;SDS011;54465;51.230;22.504;2023-02-26T03:25:16;5.63;;;4.28;;
32946;SDS011;54465;51.230;22.504;2023-02-26T03:30:21;5.35;;;3.50;;
32946;SDS011;54465;51.230;22.504;2023-02-26T03:35:28;4.85;;;3.08;;
32946;SDS011;54465;51.230;22.504;2023-02-26T03:40:36;4.63;;;3.70;;
32946;SDS011;54465;51.230;22.504;2023-02-26T03:45:46;4.75;;;3.65;;
32946;SDS011;54465;51.230;22.504;2023-02-26T03:50:48;4.57;;;3.90;;
32946;SDS011;54465;51.230;22.504;2023-02-26T03:56:18;5.10;;;3.58;;
32946;SDS011;54465;51.230;22.504;2023-02-26T04:01:24;4.55;;;3.97;;
32946;SDS011;54465;51.230;22.504;2023-02-26T04:06:28;3.97;;;3.42;;
32946;SDS011;54465;51.230;22.504;2023-02-26T04:11:30;3.97;;;3.58;;
32946;SDS011;54465;51.230;22.504;2023-02-26T04:16:31;7.97;;;4.40;;
32946;SDS011;54465;51.230;22.504;2023-02-26T04:21:32;4.82;;;3.72;;
32946;SDS011;54465;51.230;22.504;2023-02-26T04:26:32;5.72;;;3.65;;
32946;SDS011;54465;51.230;22.504;2023-02-26T04:31:33;4.45;;;3.15;;
32946;SDS011;54465;51.230;22.504;2023-02-26T04:36:34;2.90;;;2.33;;
32946;SDS011;54465;51.230;22.504;2023-02-26T04:41:35;2.85;;;2.03;;
32946;SDS011;54465;51.230;22.504;2023-02-26T04:46:36;2.80;;;1.40;;
32946;SDS011;54465;51.230;22.504;2023-02-26T04:51:36;4.07;;;2.17;;
32946;SDS011;54465;51.230;22.504;2023-02-26T04:56:37;4.30;;;2.42;;
32946;SDS011;54465;51.230;22.504;2023-02-26T05:01:38;3.25;;;2.30;;
32946;SDS011;54465;51.230;22.504;2023-02-26T05:06:41;3.88;;;2.10;;
32946;SDS011;54465;51.230;22.504;2023-02-26T05:11:42;3.10;;;2.08;;
32946;SDS011;54465;51.230;22.504;2023-02-26T05:16:42;3.20;;;2.30;;
32946;SDS011;54465;51.230;22.504;2023-02-26T05:21:43;4.75;;;2.53;;
32946;SDS011;54465;51.230;22.504;2023-02-26T05:26:43;4.20;;;3.03;;
32946;SDS011;54465;51.230;22.504;2023-02-26T05:31:46;3.50;;;2.20;;
32946;SDS011;54465;51.230;22.504;2023-02-26T05:36:46;2.33;;;1.95;;
32946;SDS011;54465;51.230;22.504;2023-02-26T05:41:47;2.28;;;1.65;;
32946;SDS011;54465;51.230;22.504;2023-02-26T05:46:47;2.70;;;1.77;;
32946;SDS011;54465;51.230;22.504;2023-02-26T05:51:48;3.08;;;1.90;;
32946;SDS011;54465;51.230;22.504;2023-02-26T05:56:48;3.95;;;1.63;;
32946;SDS011;54465;51.230;22.504;2023-02-26T06:01:49;2.00;;;1.60;;
32946;SDS011;54465;51.230;22.504;2023-02-26T06:06:49;3.33;;;1.77;;
32946;SDS011;54465;51.230;22.504;2023-02-26T06:11:50;2.42;;;1.30;;
32946;SDS011;54465;51.230;22.504;2023-02-26T06:16:50;1.55;;;1.13;;
32946;SDS011;54465;51.230;22.504;2023-02-26T06:21:51;2.38;;;1.52;;
32946;SDS011;54465;51.230;22.504;2023-02-26T06:26:51;2.50;;;1.80;;
32946;SDS011;54465;51.230;22.504;2023-02-26T06:31:52;2.83;;;2.17;;
32946;SDS011;54465;51.230;22.504;2023-02-26T06:36:52;2.50;;;2.25;;
32946;SDS011;54465;51.230;22.504;2023-02-26T06:41:53;4.07;;;2.50;;
32946;SDS011;54465;51.230;22.504;2023-02-26T06:46:53;3.60;;;2.13;;
32946;SDS011;54465;51.230;22.504;2023-02-26T06:51:54;3.33;;;2.05;;
32946;SDS011;54465;51.230;22.504;2023-02-26T06:56:54;5.70;;;2.30;;
32946;SDS011;54465;51.230;22.504;2023-02-26T07:01:56;2.75;;;2.08;;
32946;SDS011;54465;51.230;22.504;2023-02-26T07:06:57;2.30;;;1.70;;
32946;SDS011;54465;51.230;22.504;2023-02-26T07:11:57;2.78;;;1.80;;
32946;SDS011;54465;51.230;22.504;2023-02-26T07:16:58;3.58;;;2.05;;
32946;SDS011;54465;51.230;22.504;2023-02-26T07:21:59;3.17;;;2.50;;
32946;SDS011;54465;51.230;22.504;2023-02-26T07:26:59;2.88;;;2.15;;
32946;SDS011;54465;51.230;22.504;2023-02-26T07:32:00;5.25;;;2.88;;
32946;SDS011;54465;51.230;22.504;2023-02-26T07:37:00;3.55;;;2.13;;
32946;SDS011;54465;51.230;22.504;2023-02-26T07:42:01;6.40;;;2.70;;
32946;SDS011;54465;51.230;22.504;2023-02-26T07:47:02;5.18;;;2.47;;
32946;SDS011;54465;51.230;22.504;2023-02-26T07:52:03;3.72;;;2.30;;
32946;SDS011;54465;51.230;22.504;2023-02-26T07:57:04;4.78;;;2.88;;
32946;SDS011;54465;51.230;22.504;2023-02-26T08:02:05;4.70;;;3.00;;
32946;SDS011;54465;51.230;22.504;2023-02-26T08:07:06;4.13;;;2.50;;
32946;SDS011;54465;51.230;22.504;2023-02-26T08:12:06;4.90;;;2.90;;
32946;SDS011;54465;51.230;22.504;2023-02-26T08:17:07;5.22;;;2.70;;
32946;SDS011;54465;51.230;22.504;2023-02-26T08:22:08;3.80;;;2.13;;
32946;SDS011;54465;51.230;22.504;2023-02-26T08:27:09;5.05;;;2.80;;
32946;SDS011;54465;51.230;22.504;2023-02-26T08:32:09;4.43;;;2.20;;
32946;SDS011;54465;51.230;22.504;2023-02-26T08:37:10;3.50;;;2.17;;
32946;SDS011;54465;51.230;22.504;2023-02-26T08:42:10;4.55;;;2.78;;
32946;SDS011;54465;51.230;22.504;2023-02-26T08:47:11;5.28;;;2.75;;
32946;SDS011;54465;51.230;22.504;2023-02-26T08:52:12;3.05;;;2.03;;
32946;SDS011;54465;51.230;22.504;2023-02-26T08:57:13;4.88;;;2.80;;
32946;SDS011;54465;51.230;22.504;2023-02-26T09:02:13;4.70;;;2.60;;
32946;SDS011;54465;51.230;22.504;2023-02-26T09:07:14;6.13;;;3.53;;
32946;SDS011;54465;51.230;22.504;2023-02-26T09:12:14;3.33;;;1.88;;
32946;SDS011;54465;51.230;22.504;2023-02-26T09:17:16;4.07;;;2.58;;
32946;SDS011;54465;51.230;22.504;2023-02-26T09:22:16;3.95;;;2.22;;
32946;SDS011;54465;51.230;22.504;2023-02-26T09:27:17;3.65;;;2.30;;
32946;SDS011;54465;51.230;22.504;2023-02-26T09:32:17;3.65;;;2.60;;
32946;SDS011;54465;51.230;22.504;2023-02-26T09:37:18;4.28;;;2.20;;
32946;SDS011;54465;51.230;22.504;2023-02-26T09:47:26;3.70;;;2.28;;
32946;SDS011;54465;51.230;22.504;2023-02-26T09:52:31;5.10;;;2.40;;
32946;SDS011;54465;51.230;22.504;2023-02-26T09:57:35;4.28;;;2.05;;
32946;SDS011;54465;51.230;22.504;2023-02-26T10:02:43;3.88;;;2.55;;
32946;SDS011;54465;51.230;22.504;2023-02-26T10:08:12;4.03;;;2.00;;
32946;SDS011;54465;51.230;22.504;2023-02-26T10:13:18;4.00;;;2.45;;
32946;SDS011;54465;51.230;22.504;2023-02-26T10:18:25;4.60;;;2.42;;
32946;SDS011;54465;51.230;22.504;2023-02-26T10:23:44;6.32;;;3.20;;
32946;SDS011;54465;51.230;22.504;2023-02-26T10:39:52;5.50;;;2.90;;
32946;SDS011;54465;51.230;22.504;2023-02-26T10:50:23;5.05;;;2.90;;
32946;SDS011;54465;51.230;22.504;2023-02-26T10:55:46;3.95;;;2.67;;
32946;SDS011;54465;51.230;22.504;2023-02-26T11:00:53;4.38;;;2.72;;
32946;SDS011;54465;51.230;22.504;2023-02-26T11:05:54;4.68;;;2.88;;
32946;SDS011;54465;51.230;22.504;2023-02-26T11:10:57;4.50;;;2.65;;
32946;SDS011;54465;51.230;22.504;2023-02-26T11:16:00;4.15;;;2.60;;
32946;SDS011;54465;51.230;22.504;2023-02-26T11:21:03;4.53;;;2.72;;
32946;SDS011;54465;51.230;22.504;2023-02-26T11:26:06;3.55;;;2.28;;
32946;SDS011;54465;51.230;22.504;2023-02-26T11:31:09;3.90;;;2.35;;
32946;SDS011;54465;51.230;22.504;2023-02-26T11:36:12;4.25;;;2.47;;
32946;SDS011;54465;51.230;22.504;2023-02-26T11:41:14;5.47;;;2.60;;
32946;SDS011;54465;51.230;22.504;2023-02-26T11:46:16;4.63;;;2.78;;
32946;SDS011;54465;51.230;22.504;2023-02-26T11:51:20;3.78;;;2.28;;
32946;SDS011;54465;51.230;22.504;2023-02-26T11:56:26;5.78;;;2.80;;
32946;SDS011;54465;51.230;22.504;2023-02-26T12:01:30;3.47;;;2.30;;
32946;SDS011;54465;51.230;22.504;2023-02-26T12:06:30;3.95;;;2.75;;
32946;SDS011;54465;51.230;22.504;2023-02-26T12:22:37;5.50;;;2.97;;
32946;SDS011;54465;51.230;22.504;2023-02-26T12:43:47;5.63;;;2.67;;
32946;SDS011;54465;51.230;22.504;2023-02-26T12:49:05;5.35;;;3.10;;
32946;SDS011;54465;51.230;22.504;2023-02-26T13:15:50;6.30;;;3.50;;
32946;SDS011;54465;51.230;22.504;2023-02-26T13:26:08;5.13;;;3.03;;
32946;SDS011;54465;51.230;22.504;2023-02-26T13:31:27;3.60;;;2.28;;
32946;SDS011;54465;51.230;22.504;2023-02-26T13:36:29;6.72;;;2.60;;
32946;SDS011;54465;51.230;22.504;2023-02-26T13:52:52;5.80;;;2.65;;
32946;SDS011;54465;51.230;22.504;2023-02-26T13:57:54;4.95;;;2.70;;
32946;SDS011;54465;51.230;22.504;2023-02-26T14:08:38;6.38;;;3.40;;
32946;SDS011;54465;51.230;22.504;2023-02-26T14:14:04;5.22;;;2.78;;
32946;SDS011;54465;51.230;22.504;2023-02-26T14:24:24;3.03;;;1.83;;
32946;SDS011;54465;51.230;22.504;2023-02-26T14:34:52;4.38;;;2.50;;
32946;SDS011;54465;51.230;22.504;2023-02-26T14:40:04;6.10;;;2.50;;
32946;SDS011;54465;51.230;22.504;2023-02-26T14:50:16;5.13;;;2.95;;
32946;SDS011;54465;51.230;22.504;2023-02-26T15:11:56;7.38;;;3.85;;
32946;SDS011;54465;51.230;22.504;2023-02-26T15:17:02;7.95;;;4.18;;
32946;SDS011;54465;51.230;22.504;2023-02-26T15:22:25;4.47;;;2.95;;
32946;SDS011;54465;51.230;22.504;2023-02-26T15:27:39;5.72;;;3.03;;
32946;SDS011;54465;51.230;22.504;2023-02-26T15:32:39;4.72;;;3.10;;
32946;SDS011;54465;51.230;22.504;2023-02-26T15:37:40;4.93;;;2.97;;
32946;SDS011;54465;51.230;22.504;2023-02-26T15:42:41;7.50;;;4.00;;
32946;SDS011;54465;51.230;22.504;2023-02-26T15:47:42;4.70;;;2.55;;
32946;SDS011;54465;51.230;22.504;2023-02-26T15:52:43;5.75;;;2.97;;
32946;SDS011;54465;51.230;22.504;2023-02-26T15:57:43;6.00;;;3.13;;
32946;SDS011;54465;51.230;22.504;2023-02-26T16:02:44;5.35;;;2.95;;
32946;SDS011;54465;51.230;22.504;2023-02-26T16:07:44;8.30;;;3.75;;
32946;SDS011;54465;51.230;22.504;2023-02-26T16:12:46;6.13;;;3.72;;
32946;SDS011;54465;51.230;22.504;2023-02-26T16:17:48;7.50;;;3.20;;
32946;SDS011;54465;51.230;22.504;2023-02-26T16:22:53;6.07;;;3.30;;
32946;SDS011;54465;51.230;22.504;2023-02-26T16:27:59;6.72;;;3.20;;
32946;SDS011;54465;51.230;22.504;2023-02-26T16:33:01;7.65;;;3.63;;
32946;SDS011;54465;51.230;22.504;2023-02-26T16:38:16;7.47;;;3.83;;
32946;SDS011;54465;51.230;22.504;2023-02-26T16:48:26;5.03;;;3.20;;
32946;SDS011;54465;51.230;22.504;2023-02-26T16:53:33;5.50;;;3.45;;
32946;SDS011;54465;51.230;22.504;2023-02-26T16:59:04;6.15;;;2.80;;
32946;SDS011;54465;51.230;22.504;2023-02-26T17:04:23;7.57;;;4.00;;
32946;SDS011;54465;51.230;22.504;2023-02-26T17:14:38;8.18;;;4.07;;
32946;SDS011;54465;51.230;22.504;2023-02-26T17:19:41;5.97;;;3.83;;
32946;SDS011;54465;51.230;22.504;2023-02-26T17:24:42;8.93;;;4.15;;
32946;SDS011;54465;51.230;22.504;2023-02-26T17:29:44;7.50;;;3.75;;
32946;SDS011;54465;51.230;22.504;2023-02-26T17:34:46;7.10;;;4.10;;
32946;SDS011;54465;51.230;22.504;2023-02-26T17:39:46;6.45;;;3.58;;
32946;SDS011;54465;51.230;22.504;2023-02-26T17:44:47;8.10;;;3.80;;
32946;SDS011;54465;51.230;22.504;2023-02-26T17:49:54;5.70;;;3.20;;
32946;SDS011;54465;51.230;22.504;2023-02-26T17:54:55;7.05;;;3.35;;
32946;SDS011;54465;51.230;22.504;2023-02-26T17:59:56;6.72;;;3.72;;
32946;SDS011;54465;51.230;22.504;2023-02-26T18:04:57;10.13;;;4.15;;
32946;SDS011;54465;51.230;22.504;2023-02-26T18:09:57;8.75;;;4.70;;
32946;SDS011;54465;51.230;22.504;2023-02-26T18:14:58;10.07;;;5.03;;
32946;SDS011;54465;51.230;22.504;2023-02-26T18:19:58;8.85;;;5.07;;
32946;SDS011;54465;51.230;22.504;2023-02-26T18:24:59;10.32;;;5.63;;
32946;SDS011;54465;51.230;22.504;2023-02-26T18:30:00;9.82;;;4.85;;
32946;SDS011;54465;51.230;22.504;2023-02-26T18:35:01;12.57;;;5.75;;
32946;SDS011;54465;51.230;22.504;2023-02-26T18:40:04;11.15;;;5.40;;
32946;SDS011;54465;51.230;22.504;2023-02-26T18:45:05;10.82;;;5.03;;
32946;SDS011;54465;51.230;22.504;2023-02-26T18:50:07;9.25;;;4.60;;
32946;SDS011;54465;51.230;22.504;2023-02-26T18:55:10;7.43;;;4.03;;
32946;SDS011;54465;51.230;22.504;2023-02-26T19:00:12;9.68;;;4.30;;
32946;SDS011;54465;51.230;22.504;2023-02-26T19:05:13;9.75;;;5.00;;
32946;SDS011;54465;51.230;22.504;2023-02-26T19:10:15;10.55;;;5.32;;
32946;SDS011;54465;51.230;22.504;2023-02-26T19:15:16;15.15;;;7.00;;
32946;SDS011;54465;51.230;22.504;2023-02-26T19:20:17;16.42;;;7.03;;
32946;SDS011;54465;51.230;22.504;2023-02-26T19:25:17;17.38;;;7.78;;
32946;SDS011;54465;51.230;22.504;2023-02-26T19:30:22;15.07;;;6.30;;
32946;SDS011;54465;51.230;22.504;2023-02-26T19:35:23;9.75;;;6.50;;
32946;SDS011;54465;51.230;22.504;2023-02-26T19:40:26;6.10;;;3.45;;
32946;SDS011;54465;51.230;22.504;2023-02-26T19:45:27;5.15;;;2.20;;
32946;SDS011;54465;51.230;22.504;2023-02-26T19:50:27;5.30;;;1.50;;
32946;SDS011;54465;51.230;22.504;2023-02-26T19:55:28;2.95;;;1.20;;
32946;SDS011;54465;51.230;22.504;2023-02-26T20:00:28;2.60;;;1.02;;
32946;SDS011;54465;51.230;22.504;2023-02-26T20:05:29;5.70;;;1.58;;
32946;SDS011;54465;51.230;22.504;2023-02-26T20:10:29;4.88;;;1.98;;
32946;SDS011;54465;51.230;22.504;2023-02-26T20:15:31;3.20;;;1.55;;
32946;SDS011;54465;51.230;22.504;2023-02-26T20:20:32;3.60;;;1.65;;
32946;SDS011;54465;51.230;22.504;2023-02-26T20:25:33;3.60;;;2.00;;
32946;SDS011;54465;51.230;22.504;2023-02-26T20:30:33;4.43;;;1.70;;
32946;SDS011;54465;51.230;22.504;2023-02-26T20:35:34;3.33;;;1.48;;
32946;SDS011;54465;51.230;22.504;2023-02-26T20:40:35;3.35;;;1.70;;
32946;SDS011;54465;51.230;22.504;2023-02-26T20:45:36;3.97;;;2.05;;
32946;SDS011;54465;51.230;22.504;2023-02-26T20:50:37;4.32;;;1.83;;
32946;SDS011;54465;51.230;22.504;2023-02-26T20:55:37;5.93;;;1.80;;
32946;SDS011;54465;51.230;22.504;2023-02-26T21:00:38;3.13;;;1.77;;
32946;SDS011;54465;51.230;22.504;2023-02-26T21:05:38;4.93;;;2.20;;
32946;SDS011;54465;51.230;22.504;2023-02-26T21:10:40;5.78;;;2.38;;
32946;SDS011;54465;51.230;22.504;2023-02-26T21:15:41;4.82;;;1.90;;
32946;SDS011;54465;51.230;22.504;2023-02-26T21:20:41;4.22;;;2.10;;
32946;SDS011;54465;51.230;22.504;2023-02-26T21:25:42;4.05;;;2.15;;
32946;SDS011;54465;51.230;22.504;2023-02-26T21:30:43;4.10;;;2.05;;
32946;SDS011;54465;51.230;22.504;2023-02-26T21:35:43;3.78;;;1.67;;
32946;SDS011;54465;51.230;22.504;2023-02-26T21:40:46;5.15;;;1.63;;
32946;SDS011;54465;51.230;22.504;2023-02-26T21:45:47;5.10;;;2.15;;
32946;SDS011;54465;51.230;22.504;2023-02-26T21:50:49;10.60;;;3.13;;
32946;SDS011;54465;51.230;22.504;2023-02-26T21:55:51;12.27;;;3.97;;
32946;SDS011;54465;51.230;22.504;2023-02-26T22:00:52;10.68;;;3.65;;
32946;SDS011;54465;51.230;22.504;2023-02-26T22:05:53;5.43;;;2.55;;
32946;SDS011;54465;51.230;22.504;2023-02-26T22:10:54;10.98;;;3.22;;
32946;SDS011;54465;51.230;22.504;2023-02-26T22:15:55;8.20;;;3.67;;
32946;SDS011;54465;51.230;22.504;2023-02-26T22:20:55;10.60;;;4.22;;
32946;SDS011;54465;51.230;22.504;2023-02-26T22:25:56;7.82;;;3.63;;
32946;SDS011;54465;51.230;22.504;2023-02-26T22:30:57;7.10;;;3.03;;
32946;SDS011;54465;51.230;22.504;2023-02-26T22:35:58;6.15;;;2.33;;
32946;SDS011;54465;51.230;22.504;2023-02-26T22:40:59;3.83;;;2.03;;
32946;SDS011;54465;51.230;22.504;2023-02-26T22:45:59;4.88;;;2.00;;
32946;SDS011;54465;51.230;22.504;2023-02-26T22:51:00;3.53;;;2.22;;
32946;SDS011;54465;51.230;22.504;2023-02-26T22:56:00;3.95;;;1.80;;
32946;SDS011;54465;51.230;22.504;2023-02-26T23:01:02;7.25;;;2.33;;
32946;SDS011;54465;51.230;22.504;2023-02-26T23:06:04;4.72;;;2.58;;
32946;SDS011;54465;51.230;22.504;2023-02-26T23:11:05;8.90;;;3.55;;
32946;SDS011;54465;51.230;22.504;2023-02-26T23:16:07;6.18;;;3.50;;
32946;SDS011;54465;51.230;22.504;2023-02-26T23:21:08;8.60;;;3.38;;
32946;SDS011;54465;51.230;22.504;2023-02-26T23:26:09;6.38;;;2.90;;
32946;SDS011;54465;51.230;22.504;2023-02-26T23:31:10;7.63;;;2.78;;
32946;SDS011;54465;51.230;22.504;2023-02-26T23:36:10;6.03;;;2.90;;
32946;SDS011;54465;51.230;22.504;2023-02-26T23:41:11;7.22;;;2.72;;
32946;SDS011;54465;51.230;22.504;2023-02-26T23:46:11;10.52;;;2.67;;
32946;SDS011;54465;51.230;22.504;2023-02-26T23:51:12;6.45;;;2.90;;
32946;SDS011;54465;51.230;22.504;2023-02-26T23:56:12;4.82;;;1.75;;
